createdAt,value
2019-05-03T00:01:24.570Z,14.57
2019-05-03T00:03:54.339Z,15.70
2019-05-03T00:06:24.539Z,15.57
2019-05-03T00:08:54.380Z,15.53
2019-05-03T00:11:24.140Z,16.33
2019-05-03T00:13:53.799Z,16.00
2019-05-03T00:16:29.320Z,15.90
2019-05-03T00:19:01.006Z,16.35
2019-05-03T00:21:32.563Z,17.80
2019-05-03T00:24:02.784Z,16.87
2019-05-03T00:26:32.782Z,16.97
2019-05-03T00:29:02.598Z,17.97
2019-05-03T00:31:32.264Z,17.10
2019-05-03T00:34:06.972Z,15.95
2019-05-03T00:36:44.302Z,17.40
2019-05-03T00:39:25.667Z,19.20
2019-05-03T00:41:55.660Z,17.20
2019-05-03T00:44:25.311Z,17.07
2019-05-03T00:46:55.234Z,15.83
2019-05-03T00:49:25.223Z,15.37
2019-05-03T00:51:55.237Z,16.07
2019-05-03T00:54:24.906Z,16.63
2019-05-03T00:56:54.669Z,14.65
2019-05-03T00:59:24.319Z,15.32
2019-05-03T01:01:54.009Z,16.77
2019-05-03T01:04:23.676Z,15.00
2019-05-03T01:06:53.351Z,14.78
2019-05-03T01:09:24.064Z,14.53
2019-05-03T01:11:53.820Z,14.37
2019-05-03T01:14:23.556Z,14.00
2019-05-03T01:16:53.367Z,14.23
2019-05-03T01:19:23.105Z,13.90
2019-05-03T01:21:53.288Z,13.70
2019-05-03T01:24:24.178Z,14.00
2019-05-03T01:26:53.953Z,14.10
2019-05-03T01:31:58.307Z,13.77
2019-05-03T01:34:28.045Z,13.63
2019-05-03T01:36:57.779Z,13.57
2019-05-03T01:39:27.789Z,13.97
2019-05-03T01:41:57.456Z,13.13
2019-05-03T01:44:27.112Z,14.67
2019-05-03T01:46:58.573Z,14.15
2019-05-03T01:49:53.540Z,14.40
2019-05-03T01:52:27.754Z,14.03
2019-05-03T01:54:57.425Z,14.17
2019-05-03T01:57:27.148Z,13.95
2019-05-03T01:59:57.082Z,14.13
2019-05-03T02:02:43.305Z,13.80
2019-05-03T02:05:32.158Z,14.07
2019-05-03T02:08:02.256Z,13.60
2019-05-03T02:10:32.330Z,13.85
2019-05-03T02:13:02.006Z,14.37
2019-05-03T02:15:32.662Z,13.43
2019-05-03T02:18:02.767Z,13.00
2019-05-03T02:20:33.508Z,14.20
2019-05-03T02:23:03.260Z,13.83
2019-05-03T02:25:32.948Z,13.67
2019-05-03T02:28:02.685Z,14.77
2019-05-03T02:30:33.365Z,16.23
2019-05-03T02:33:04.196Z,14.85
2019-05-03T02:35:34.093Z,14.17
2019-05-03T02:38:03.933Z,14.53
2019-05-03T02:40:34.036Z,15.83
2019-05-03T02:43:10.963Z,13.57
2019-05-03T02:46:16.859Z,13.98
2019-05-03T02:49:06.435Z,13.73
2019-05-03T02:51:36.790Z,13.90
2019-05-03T02:54:06.461Z,14.07
2019-05-03T02:56:36.125Z,13.90
2019-05-03T02:59:06.363Z,13.93
2019-05-03T03:01:36.685Z,13.05
2019-05-03T03:04:06.826Z,12.90
2019-05-03T03:06:39.507Z,12.60
2019-05-03T03:09:09.501Z,9.93
2019-05-03T03:11:39.806Z,9.70
2019-05-03T03:14:12.834Z,9.23
2019-05-03T03:16:45.875Z,9.40
2019-05-03T03:19:16.964Z,9.30
2019-05-03T03:21:50.307Z,9.63
2019-05-03T03:24:25.650Z,8.20
2019-05-03T03:26:56.657Z,7.77
2019-05-03T03:29:27.827Z,6.90
2019-05-03T03:32:11.787Z,5.30
2019-05-03T03:34:54.714Z,3.92
2019-05-03T03:37:18.614Z,3.45
2019-05-03T03:39:48.412Z,3.43
2019-05-03T03:42:19.964Z,3.47
2019-05-03T03:44:51.382Z,3.58
2019-05-03T03:47:21.587Z,3.30
2019-05-03T03:49:51.916Z,3.47
2019-05-03T03:52:25.301Z,2.90
2019-05-03T03:54:55.506Z,2.70
2019-05-03T03:57:27.497Z,2.60
2019-05-03T03:59:58.008Z,2.58
2019-05-03T04:02:27.968Z,2.33
2019-05-03T04:04:58.874Z,2.70
2019-05-03T04:07:29.372Z,3.00
2019-05-03T04:09:59.380Z,2.75
2019-05-03T04:12:29.755Z,2.67
2019-05-03T04:15:11.655Z,2.50
2019-05-03T04:18:05.602Z,2.85
2019-05-03T04:20:36.655Z,2.70
2019-05-03T04:23:07.166Z,2.92
2019-05-03T04:25:36.888Z,2.90
2019-05-03T04:28:06.708Z,2.47
2019-05-03T04:30:36.760Z,2.60
2019-05-03T04:33:06.656Z,2.70
2019-05-03T04:35:36.811Z,2.80
2019-05-03T04:38:06.778Z,2.70
2019-05-03T04:40:36.435Z,2.67
2019-05-03T04:43:06.498Z,3.10
2019-05-03T04:45:36.824Z,2.70
2019-05-03T04:48:06.774Z,2.83
2019-05-03T04:50:37.049Z,3.08
2019-05-03T04:53:06.927Z,2.90
2019-05-03T04:55:36.725Z,3.03
2019-05-03T04:58:06.340Z,3.30
2019-05-03T05:00:36.287Z,3.47
2019-05-03T05:03:06.306Z,4.00
2019-05-03T05:05:36.573Z,3.43
2019-05-03T05:08:06.437Z,2.93
2019-05-03T05:10:37.039Z,2.98
2019-05-03T05:13:06.677Z,3.50
2019-05-03T05:15:36.335Z,3.97
2019-05-03T05:18:16.068Z,3.53
2019-05-03T05:20:56.342Z,3.67
2019-05-03T05:23:25.984Z,3.90
2019-05-03T05:26:02.789Z,3.67
2019-05-03T05:28:39.276Z,3.80
2019-05-03T05:31:08.940Z,4.03
2019-05-03T05:33:38.853Z,3.42
2019-05-03T05:36:08.510Z,4.05
2019-05-03T05:38:38.152Z,3.23
2019-05-03T05:41:07.809Z,3.47
2019-05-03T05:43:37.457Z,3.77
2019-05-03T05:46:07.424Z,3.98
2019-05-03T05:48:47.226Z,4.00
2019-05-03T05:51:16.961Z,4.00
2019-05-03T05:53:47.842Z,3.70
2019-05-03T05:56:26.076Z,3.90
2019-05-03T05:59:17.630Z,4.07
2019-05-03T06:01:59.611Z,3.97
2019-05-03T06:04:29.515Z,3.87
2019-05-03T06:07:07.732Z,3.30
2019-05-03T06:09:54.993Z,3.03
2019-05-03T06:12:30.742Z,3.70
2019-05-03T06:15:04.929Z,3.87
2019-05-03T06:17:40.208Z,3.17
2019-05-03T06:20:21.855Z,3.77
2019-05-03T06:22:58.318Z,4.03
2019-05-03T06:25:35.360Z,3.70
2019-05-03T06:28:17.307Z,4.23
2019-05-03T06:30:55.866Z,4.23
2019-05-03T06:33:25.533Z,4.47
2019-05-03T06:35:55.185Z,4.80
2019-05-03T06:38:24.847Z,4.50
2019-05-03T06:40:54.534Z,4.90
2019-05-03T06:43:24.575Z,4.30
2019-05-03T06:45:54.802Z,4.60
2019-05-03T06:48:27.935Z,3.77
2019-05-03T06:51:00.157Z,4.30
2019-05-03T06:53:27.221Z,2.90
2019-05-03T06:55:56.859Z,3.47
2019-05-03T06:58:33.476Z,2.70
2019-05-03T07:01:16.910Z,2.83
2019-05-03T07:03:56.716Z,2.80
2019-05-03T07:06:45.411Z,3.40
2019-05-03T07:09:19.763Z,2.83
2019-05-03T07:11:49.408Z,2.73
2019-05-03T07:14:19.066Z,2.62
2019-05-03T07:16:48.964Z,3.30
2019-05-03T07:19:18.627Z,3.10
2019-05-03T07:21:48.264Z,2.80
2019-05-03T07:24:17.923Z,2.63
2019-05-03T07:26:48.758Z,3.05
2019-05-03T07:29:18.495Z,3.20
2019-05-03T07:31:48.406Z,3.30
2019-05-03T07:34:18.309Z,3.50
2019-05-03T07:36:47.970Z,3.60
2019-05-03T07:39:17.626Z,3.43
2019-05-03T07:41:47.346Z,3.43
2019-05-03T07:44:16.999Z,3.00
2019-05-03T07:46:46.650Z,2.52
2019-05-03T07:49:16.312Z,3.10
2019-05-03T07:51:45.961Z,2.13
2019-05-03T07:54:15.828Z,2.00
2019-05-03T07:56:54.911Z,1.80
2019-05-03T07:59:25.169Z,1.72
2019-05-03T08:01:56.318Z,2.10
2019-05-03T08:04:26.030Z,1.90
2019-05-03T08:06:55.689Z,2.20
2019-05-03T08:09:25.340Z,1.90
2019-05-03T08:11:54.984Z,2.17
2019-05-03T08:14:25.234Z,2.10
2019-05-03T08:16:54.978Z,2.30
2019-05-03T08:19:27.026Z,1.50
2019-05-03T08:21:56.646Z,1.20
2019-05-03T08:24:26.431Z,1.27
2019-05-03T08:26:57.128Z,1.53
2019-05-03T08:29:26.785Z,1.52
2019-05-03T08:32:06.339Z,1.47
2019-05-03T08:34:40.814Z,1.50
2019-05-03T08:37:15.344Z,1.10
2019-05-03T08:39:45.094Z,1.40
2019-05-03T08:42:25.363Z,1.70
2019-05-03T08:44:55.447Z,2.00
2019-05-03T08:47:25.302Z,1.60
2019-05-03T08:49:55.565Z,1.52
2019-05-03T08:52:25.273Z,2.03
2019-05-03T08:54:55.198Z,1.73
2019-05-03T08:57:25.425Z,2.10
2019-05-03T08:59:55.211Z,1.95
2019-05-03T09:02:25.797Z,2.90
2019-05-03T09:04:55.616Z,2.00
2019-05-03T09:07:25.539Z,1.83
2019-05-03T09:10:12.211Z,1.83
2019-05-03T09:12:56.838Z,2.20
2019-05-03T09:15:27.498Z,1.80
2019-05-03T09:17:57.181Z,2.12
2019-05-03T09:20:26.881Z,2.67
2019-05-03T09:22:56.827Z,2.40
2019-05-03T09:25:26.561Z,2.37
2019-05-03T09:27:56.276Z,2.23
2019-05-03T09:30:27.050Z,2.07
2019-05-03T09:32:56.768Z,2.00
2019-05-03T09:35:32.173Z,2.58
2019-05-03T09:37:57.927Z,2.13
2019-05-03T09:40:27.586Z,2.10
2019-05-03T09:42:57.233Z,2.40
2019-05-03T09:45:27.801Z,1.90
2019-05-03T09:47:57.718Z,2.40
2019-05-03T09:50:27.631Z,2.85
2019-05-03T09:52:57.283Z,1.90
2019-05-03T09:55:35.458Z,2.50
2019-05-03T09:58:05.753Z,2.27
2019-05-03T10:00:35.320Z,2.50
2019-05-03T10:03:05.744Z,3.10
2019-05-03T10:05:35.418Z,2.43
2019-05-03T10:08:06.220Z,2.17
2019-05-03T10:10:53.637Z,3.50
2019-05-03T10:13:26.610Z,4.70
2019-05-03T10:15:55.015Z,6.30
2019-05-03T10:18:25.472Z,2.20
2019-05-03T10:20:56.308Z,7.40
2019-05-03T10:23:38.312Z,2.87
2019-05-03T10:26:08.847Z,2.60
2019-05-03T10:28:38.777Z,2.50
2019-05-03T10:31:08.513Z,2.30
2019-05-03T10:33:45.002Z,2.37
2019-05-03T10:36:15.511Z,2.25
2019-05-03T10:38:46.113Z,2.50
2019-05-03T10:41:16.216Z,2.27
2019-05-03T10:43:45.876Z,2.42
2019-05-03T10:46:15.966Z,2.22
2019-05-03T10:48:45.859Z,2.60
2019-05-03T10:51:15.995Z,2.07
2019-05-03T10:53:49.339Z,2.00
2019-05-03T10:56:23.005Z,1.92
2019-05-03T10:59:06.203Z,2.22
2019-05-03T11:01:46.766Z,1.52
2019-05-03T11:04:16.478Z,2.27
2019-05-03T11:06:46.150Z,2.60
2019-05-03T11:09:16.040Z,1.47
2019-05-03T11:11:45.697Z,2.00
2019-05-03T11:14:15.595Z,2.60
2019-05-03T11:16:46.100Z,2.10
2019-05-03T11:19:15.966Z,2.52
2019-05-03T11:21:45.870Z,3.33
2019-05-03T11:24:15.530Z,2.42
2019-05-03T11:26:47.058Z,2.93
2019-05-03T11:29:16.989Z,1.47
2019-05-03T11:31:55.104Z,2.67
2019-05-03T11:34:27.957Z,3.07
2019-05-03T11:37:34.819Z,2.50
2019-05-03T11:40:05.273Z,2.50
2019-05-03T11:42:35.438Z,2.77
2019-05-03T11:45:05.517Z,2.50
2019-05-03T11:47:35.412Z,2.57
2019-05-03T11:50:05.749Z,2.20
2019-05-03T11:52:35.737Z,2.10
2019-05-03T11:55:11.448Z,2.47
2019-05-03T11:57:38.059Z,2.47
2019-05-03T12:00:09.130Z,2.40
2019-05-03T12:02:55.433Z,2.22
2019-05-03T12:05:27.447Z,2.63
2019-05-03T12:07:57.109Z,2.35
2019-05-03T12:10:46.323Z,2.40
2019-05-03T12:13:05.049Z,3.23
2019-05-03T12:15:35.289Z,2.83
2019-05-03T12:18:08.178Z,3.00
2019-05-03T12:20:39.621Z,2.80
2019-05-03T12:23:10.818Z,2.80
2019-05-03T12:25:41.784Z,3.17
2019-05-03T12:28:11.840Z,3.47
2019-05-03T12:30:41.664Z,3.20
2019-05-03T12:33:11.405Z,2.97
2019-05-03T12:35:41.378Z,2.53
2019-05-03T12:38:11.305Z,2.90
2019-05-03T12:40:40.957Z,2.47
2019-05-03T12:43:10.694Z,2.40
2019-05-03T12:45:40.356Z,2.20
2019-05-03T12:48:10.906Z,1.70
2019-05-03T12:50:40.895Z,2.10
2019-05-03T12:53:11.061Z,2.10
2019-05-03T12:55:40.794Z,1.70
2019-05-03T12:58:11.202Z,2.10
2019-05-03T13:01:02.415Z,2.07
2019-05-03T13:03:48.815Z,1.77
2019-05-03T13:06:18.475Z,1.95
2019-05-03T13:08:48.122Z,1.90
2019-05-03T13:11:17.786Z,2.00
2019-05-03T13:13:47.433Z,1.50
2019-05-03T13:16:19.685Z,1.57
2019-05-03T13:18:49.857Z,2.00
2019-05-03T13:21:19.663Z,1.67
2019-05-03T13:23:49.308Z,2.30
2019-05-03T13:26:18.963Z,1.80
2019-05-03T13:28:48.871Z,2.52
2019-05-03T13:31:18.784Z,1.90
2019-05-03T13:33:48.451Z,2.35
2019-05-03T13:36:18.110Z,2.07
2019-05-03T13:38:47.821Z,2.17
2019-05-03T13:41:17.488Z,2.10
2019-05-03T13:43:47.131Z,1.50
2019-05-03T13:46:16.794Z,1.97
2019-05-03T13:48:49.185Z,2.55
2019-05-03T13:51:18.076Z,1.77
2019-05-03T13:53:47.711Z,1.97
2019-05-03T13:56:17.378Z,2.15
2019-05-03T13:58:47.028Z,1.90
2019-05-03T14:01:16.684Z,1.60
2019-05-03T14:03:46.329Z,1.80
2019-05-03T14:06:16.065Z,2.00
2019-05-03T14:08:45.724Z,1.80
2019-05-03T14:11:15.640Z,2.13
2019-05-03T14:13:45.322Z,2.33
2019-05-03T14:16:15.273Z,1.90
2019-05-03T14:18:47.289Z,2.07
2019-05-03T14:21:25.656Z,2.10
2019-05-03T14:24:10.139Z,1.70
2019-05-03T14:26:40.873Z,1.83
2019-05-03T14:29:10.627Z,1.30
2019-05-03T14:31:40.629Z,1.67
2019-05-03T14:34:10.544Z,1.50
2019-05-03T14:36:40.200Z,1.67
2019-05-03T14:39:10.513Z,1.50
2019-05-03T14:41:40.568Z,1.40
2019-05-03T14:44:10.204Z,1.30
2019-05-03T14:46:39.861Z,1.73
2019-05-03T14:49:09.577Z,1.63
2019-05-03T14:51:39.486Z,1.37
2019-05-03T14:54:09.888Z,1.83
2019-05-03T14:56:47.970Z,1.50
2019-05-03T14:59:34.891Z,1.97
2019-05-03T15:02:11.069Z,1.80
2019-05-03T15:04:40.721Z,1.37
2019-05-03T15:07:10.410Z,1.40
2019-05-03T15:09:40.040Z,1.40
2019-05-03T15:12:09.697Z,2.00
2019-05-03T15:14:39.350Z,1.70
2019-05-03T15:17:09.084Z,1.40
2019-05-03T15:19:38.731Z,2.15
2019-05-03T15:22:08.399Z,1.50
2019-05-03T15:24:38.042Z,1.07
2019-05-03T15:27:07.778Z,1.37
2019-05-03T15:29:37.417Z,1.60
2019-05-03T15:32:07.080Z,1.57
2019-05-03T15:34:36.977Z,1.40
2019-05-03T15:37:06.952Z,1.25
2019-05-03T15:39:36.606Z,1.37
2019-05-03T15:42:06.503Z,1.17
2019-05-03T15:44:54.577Z,1.10
2019-05-03T15:47:28.650Z,1.12
2019-05-03T15:49:59.270Z,1.00
2019-05-03T15:52:29.239Z,1.10
2019-05-03T15:54:59.138Z,1.40
2019-05-03T15:57:28.801Z,1.40
2019-05-03T15:59:58.447Z,1.02
2019-05-03T16:02:28.181Z,1.43
2019-05-03T16:04:58.896Z,1.17
2019-05-03T16:07:28.501Z,1.10
2019-05-03T16:09:58.248Z,1.37
2019-05-03T16:12:27.921Z,1.43
2019-05-03T16:14:57.849Z,1.50
2019-05-03T16:17:27.519Z,1.73
2019-05-03T16:19:57.174Z,1.40
2019-05-03T16:22:27.179Z,1.17
2019-05-03T16:24:57.090Z,1.50
2019-05-03T16:27:48.607Z,1.30
2019-05-03T16:30:47.230Z,1.80
2019-05-03T16:33:26.957Z,1.40
2019-05-03T16:35:48.264Z,1.70
2019-05-03T16:38:18.175Z,1.50
2019-05-03T16:40:47.816Z,1.50
2019-05-03T16:43:17.812Z,1.10
2019-05-03T16:45:47.536Z,1.47
2019-05-03T16:48:18.506Z,1.20
2019-05-03T16:50:48.234Z,1.30
2019-05-03T16:53:17.894Z,1.30
2019-05-03T16:55:47.819Z,1.90
2019-05-03T16:58:17.727Z,1.67
2019-05-03T17:00:47.448Z,1.10
2019-05-03T17:03:20.236Z,1.10
2019-05-03T17:06:09.024Z,1.30
2019-05-03T17:09:05.340Z,1.20
2019-05-03T17:11:36.673Z,1.30
2019-05-03T17:14:06.709Z,1.30
2019-05-03T17:16:36.416Z,1.33
2019-05-03T17:19:06.091Z,1.30
2019-05-03T17:21:35.743Z,1.00
2019-05-03T17:24:06.346Z,1.20
2019-05-03T17:26:36.398Z,1.20
2019-05-03T17:29:06.137Z,1.30
2019-05-03T17:31:35.787Z,1.37
2019-05-03T17:34:06.142Z,1.07
2019-05-03T17:36:36.114Z,1.25
2019-05-03T17:39:10.324Z,1.37
2019-05-03T17:41:49.144Z,1.13
2019-05-03T17:44:25.550Z,1.47
2019-05-03T17:46:55.250Z,1.40
2019-05-03T17:49:25.490Z,1.60
2019-05-03T17:52:21.248Z,0.98
2019-05-03T17:55:00.609Z,1.13
2019-05-03T17:57:40.382Z,1.57
2019-05-03T18:00:27.869Z,1.30
2019-05-03T18:02:57.811Z,1.27
2019-05-03T18:05:35.863Z,1.37
2019-05-03T18:08:17.567Z,1.30
2019-05-03T18:10:52.723Z,1.43
2019-05-03T18:13:24.733Z,1.07
2019-05-03T18:15:54.421Z,1.50
2019-05-03T18:18:24.778Z,1.70
2019-05-03T18:20:55.471Z,1.27
2019-05-03T18:23:25.226Z,1.37
2019-05-03T18:25:54.946Z,1.40
2019-05-03T18:28:25.030Z,1.37
2019-05-03T18:30:54.830Z,2.03
2019-05-03T18:33:24.779Z,1.47
2019-05-03T18:35:55.030Z,1.37
2019-05-03T18:38:25.416Z,1.42
2019-05-03T18:40:55.458Z,1.37
2019-05-03T18:43:45.153Z,1.67
2019-05-03T18:46:30.967Z,1.10
2019-05-03T18:49:00.617Z,1.72
2019-05-03T18:51:30.283Z,1.65
2019-05-03T18:53:59.946Z,1.53
2019-05-03T18:56:29.608Z,1.43
2019-05-03T18:58:59.330Z,1.57
2019-05-03T19:01:29.135Z,1.73
2019-05-03T19:04:06.254Z,1.75
2019-05-03T19:06:35.945Z,1.90
2019-05-03T19:09:19.897Z,2.00
2019-05-03T19:11:57.864Z,2.05
2019-05-03T19:14:28.013Z,1.70
2019-05-03T19:17:05.148Z,2.23
2019-05-03T19:19:38.015Z,1.95
2019-05-03T19:22:07.675Z,1.80
2019-05-03T19:24:37.321Z,1.73
2019-05-03T19:27:07.280Z,1.87
2019-05-03T19:29:37.490Z,2.00
2019-05-03T19:32:08.548Z,2.10
2019-05-03T19:34:47.771Z,1.82
2019-05-03T19:37:09.892Z,1.70
2019-05-03T19:39:39.547Z,2.20
2019-05-03T19:42:09.288Z,2.22
2019-05-03T19:44:38.947Z,1.60
2019-05-03T19:47:08.596Z,1.98
2019-05-03T19:49:38.255Z,1.77
2019-05-03T19:52:08.756Z,1.72
2019-05-03T19:54:38.985Z,1.62
2019-05-03T19:57:09.012Z,1.70
2019-05-03T19:59:50.243Z,1.63
2019-05-03T20:02:27.175Z,1.37
2019-05-03T20:05:15.873Z,1.70
2019-05-03T20:08:05.140Z,1.83
2019-05-03T20:10:35.704Z,1.50
2019-05-03T20:13:05.767Z,1.87
2019-05-03T20:15:35.589Z,1.50
2019-05-03T20:18:05.258Z,2.00
2019-05-03T20:20:35.011Z,1.57
2019-05-03T20:23:05.307Z,2.12
2019-05-03T20:25:35.291Z,2.17
2019-05-03T20:28:05.374Z,2.40
2019-05-03T20:30:35.253Z,2.13
2019-05-03T20:33:05.029Z,1.93
2019-05-03T20:35:35.788Z,1.90
2019-05-03T20:38:05.426Z,1.77
2019-05-03T20:40:35.199Z,2.05
2019-05-03T20:43:25.709Z,2.10
2019-05-03T20:46:16.924Z,1.67
2019-05-03T20:48:48.639Z,2.27
2019-05-03T20:51:18.288Z,2.20
2019-05-03T20:53:47.952Z,2.17
2019-05-03T20:56:17.604Z,2.12
2019-05-03T20:58:47.261Z,2.05
2019-05-03T21:01:16.907Z,2.37
2019-05-03T21:03:47.784Z,2.30
2019-05-03T21:06:17.427Z,3.20
2019-05-03T21:08:52.790Z,3.23
2019-05-03T21:11:18.436Z,3.00
2019-05-03T21:13:48.108Z,2.30
2019-05-03T21:16:28.757Z,3.10
2019-05-03T21:19:16.106Z,2.87
2019-05-03T21:21:56.881Z,2.95
2019-05-03T21:24:41.094Z,3.02
2019-05-03T21:27:10.745Z,3.02
2019-05-03T21:29:51.423Z,2.77
2019-05-03T21:32:21.455Z,2.67
2019-05-03T21:34:51.195Z,3.17
2019-05-03T21:37:20.923Z,2.80
2019-05-03T21:39:50.585Z,3.35
2019-05-03T21:42:20.251Z,2.70
2019-05-03T21:44:50.237Z,2.87
2019-05-03T21:47:29.974Z,3.30
2019-05-03T21:50:00.225Z,2.77
2019-05-03T21:52:29.958Z,2.60
2019-05-03T21:54:59.919Z,2.53
2019-05-03T21:57:29.666Z,2.73
2019-05-03T21:59:59.676Z,3.30
2019-05-03T22:02:29.414Z,2.77
2019-05-03T22:04:59.326Z,2.83
2019-05-03T22:07:29.229Z,2.80
2019-05-03T22:09:59.350Z,2.40
2019-05-03T22:12:29.080Z,2.20
2019-05-03T22:15:09.674Z,2.87
2019-05-03T22:17:57.455Z,2.40
2019-05-03T22:20:36.192Z,2.57
2019-05-03T22:23:36.633Z,2.60
2019-05-03T22:26:05.789Z,2.00
2019-05-03T22:28:36.514Z,2.60
2019-05-03T22:31:06.855Z,2.80
2019-05-03T22:33:37.674Z,2.77
2019-05-03T22:36:08.976Z,2.70
2019-05-03T22:38:38.856Z,2.67
2019-05-03T22:41:08.599Z,2.43
2019-05-03T22:43:38.265Z,2.30
2019-05-03T22:46:08.688Z,2.55
2019-05-03T22:48:38.380Z,2.77
2019-05-03T22:51:08.060Z,2.47
2019-05-03T22:53:37.712Z,2.77
2019-05-03T22:56:07.436Z,3.13
2019-05-03T22:58:37.175Z,2.93
2019-05-03T23:01:06.841Z,2.20
2019-05-03T23:03:44.896Z,2.87
2019-05-03T23:06:22.007Z,2.77
2019-05-03T23:08:45.752Z,3.10
2019-05-03T23:11:15.417Z,3.10
2019-05-03T23:13:48.907Z,3.08
2019-05-03T23:16:18.568Z,3.52
2019-05-03T23:18:49.501Z,3.23
2019-05-03T23:21:21.255Z,2.90
2019-05-03T23:23:54.946Z,3.50
2019-05-03T23:26:25.710Z,2.97
2019-05-03T23:28:55.682Z,3.30
2019-05-03T23:31:25.594Z,3.00
2019-05-03T23:33:55.579Z,3.20
2019-05-03T23:36:33.130Z,2.93
2019-05-03T23:38:56.589Z,3.37
2019-05-03T23:41:26.251Z,3.60
2019-05-03T23:43:55.989Z,3.50
2019-05-03T23:46:34.785Z,2.93
2019-05-03T23:49:04.624Z,3.77
2019-05-03T23:51:51.153Z,3.40
2019-05-03T23:54:20.882Z,3.03
2019-05-03T23:56:50.975Z,3.27
2019-05-03T23:59:20.624Z,3.12
